Time;durP1;ratioP1;P1;durP2;ratioP2;P2;SDS_P1;SDS_P2;PMS_P1;PMS_P2;Temp;Humidity;BMP_temperature;BMP_pressure;BME280_temperature;BME280_humidity;BME280_pressure;Samples;Min_cycle;Max_cycle;Signal;HPM_P1;HPM_P2
2022/03/29 00:00:13;;;;;;;26.25;18.50;;;7.00;99.90;;;;;;4985102;28;20030;-87
2022/03/29 00:02:41;;;;;;;31.05;18.92;;;7.00;99.90;;;;;;4971205;28;20050;-86
2022/03/29 00:05:07;;;;;;;30.08;18.85;;;7.00;99.90;;;;;;4973801;28;20114;-87
2022/03/29 00:07:34;;;;;;;30.65;18.45;;;7.00;99.90;;;;;;4972689;28;20122;-86
2022/03/29 00:10:01;;;;;;;29.40;18.50;;;6.90;99.90;;;;;;4972761;28;20047;-87
2022/03/29 00:12:27;;;;;;;29.90;18.85;;;6.90;99.90;;;;;;4982816;28;20046;-87
2022/03/29 00:14:53;;;;;;;28.38;18.33;;;7.00;99.90;;;;;;4980592;28;20054;-87
2022/03/29 00:17:18;;;;;;;26.88;18.10;;;7.00;99.90;;;;;;4981311;28;20456;-88
2022/03/29 00:19:44;;;;;;;28.70;19.00;;;7.00;99.90;;;;;;4980810;28;20057;-87
2022/03/29 00:22:09;;;;;;;30.23;19.73;;;7.00;99.90;;;;;;4975396;28;20122;-87
2022/03/29 00:24:35;;;;;;;26.50;17.92;;;7.00;99.90;;;;;;4972146;28;20030;-86
2022/03/29 00:27:00;;;;;;;25.67;18.10;;;7.00;99.90;;;;;;4982936;28;20035;-87
2022/03/29 00:29:26;;;;;;;28.98;19.23;;;7.00;99.90;;;;;;4981930;28;20042;-87
2022/03/29 00:31:51;;;;;;;30.73;18.20;;;7.00;99.90;;;;;;4975071;28;20046;-87
2022/03/29 00:34:17;;;;;;;27.50;18.02;;;7.00;99.90;;;;;;4979259;28;20043;-87
2022/03/29 00:36:43;;;;;;;30.17;17.75;;;7.00;99.90;;;;;;4977239;28;20073;-87
2022/03/29 00:39:08;;;;;;;28.00;16.88;;;6.90;99.90;;;;;;4986259;28;20035;-87
2022/03/29 00:41:34;;;;;;;29.13;17.77;;;6.90;99.90;;;;;;4982505;28;20113;-86
2022/03/29 00:43:59;;;;;;;25.55;16.92;;;6.90;99.90;;;;;;4994890;28;20031;-87
2022/03/29 00:46:25;;;;;;;26.60;16.95;;;7.00;99.90;;;;;;4983343;28;20038;-88
2022/03/29 00:48:51;;;;;;;29.20;17.52;;;6.90;99.90;;;;;;4978270;28;20053;-87
2022/03/29 00:51:17;;;;;;;26.40;17.40;;;7.40;99.90;;;;;;4979623;28;20035;-86
2022/03/29 00:53:43;;;;;;;33.85;19.17;;;6.90;99.90;;;;;;4974051;28;20343;-87
2022/03/29 00:56:09;;;;;;;25.02;16.80;;;6.80;99.90;;;;;;4977618;28;20039;-87
2022/03/29 00:58:35;;;;;;;28.08;17.13;;;6.80;99.90;;;;;;4968285;28;20408;-87
2022/03/29 01:01:02;;;;;;;26.58;17.33;;;6.80;99.90;;;;;;4962863;28;20050;-87
2022/03/29 01:03:30;;;;;;;26.45;17.13;;;6.80;99.90;;;;;;4977207;28;20038;-86
2022/03/29 01:05:56;;;;;;;25.85;16.73;;;6.80;99.90;;;;;;4991189;28;20480;-87
2022/03/29 01:08:24;;;;;;;28.08;16.92;;;6.80;99.90;;;;;;4973341;28;20105;-87
2022/03/29 01:10:50;;;;;;;26.33;16.17;;;6.80;99.90;;;;;;4972280;28;20094;-87
2022/03/29 01:13:17;;;;;;;27.08;16.70;;;6.80;99.90;;;;;;4973823;28;20465;-88
2022/03/29 01:15:44;;;;;;;25.83;16.15;;;6.70;99.90;;;;;;4973005;28;20049;-87
2022/03/29 01:18:11;;;;;;;26.90;17.15;;;6.70;99.90;;;;;;4972697;28;20502;-88
2022/03/29 01:20:38;;;;;;;28.15;17.20;;;6.70;99.90;;;;;;4974376;28;20053;-87
2022/03/29 01:23:05;;;;;;;28.38;17.20;;;6.80;99.90;;;;;;4988122;28;20042;-87
2022/03/29 01:25:37;;;;;;;25.35;16.25;;;6.80;99.90;;;;;;4992649;28;20050;-88
2022/03/29 01:28:05;;;;;;;27.20;16.83;;;6.90;99.90;;;;;;4993112;28;20130;-86
2022/03/29 01:30:31;;;;;;;27.33;16.90;;;6.90;99.90;;;;;;4978556;28;20047;-88
2022/03/29 01:33:00;;;;;;;24.70;15.63;;;6.90;99.90;;;;;;4970851;28;20054;-88
2022/03/29 01:35:26;;;;;;;28.17;16.40;;;6.90;99.90;;;;;;4981655;28;20405;-87
2022/03/29 01:37:53;;;;;;;29.50;17.50;;;7.20;99.90;;;;;;4980473;28;20030;-88
2022/03/29 01:40:21;;;;;;;29.40;16.65;;;6.80;99.90;;;;;;4990148;28;20488;-87
2022/03/29 01:42:58;;;;;;;26.50;16.80;;;6.80;99.90;;;;;;4986987;28;20049;-88
2022/03/29 01:45:27;;;;;;;26.63;16.90;;;6.80;99.90;;;;;;4992636;28;20042;-87
2022/03/29 01:47:53;;;;;;;28.02;15.98;;;6.80;99.90;;;;;;4985549;28;20058;-88
2022/03/29 01:50:19;;;;;;;26.65;16.77;;;6.80;99.90;;;;;;4986684;28;20042;-87
2022/03/29 01:52:46;;;;;;;26.73;17.20;;;6.80;99.90;;;;;;4982726;28;20050;-87
2022/03/29 01:55:17;;;;;;;28.02;17.13;;;6.80;99.90;;;;;;4973087;28;20057;-87
2022/03/29 01:57:42;;;;;;;28.75;17.05;;;6.70;99.90;;;;;;4989920;28;20041;-87
2022/03/29 02:02:55;;;;;;;28.35;17.23;;;6.70;99.90;;;;;;4959616;28;20042;-87
2022/03/29 02:05:21;;;;;;;28.80;17.50;;;6.70;99.90;;;;;;4993119;28;20042;-87
2022/03/29 02:07:47;;;;;;;28.52;18.35;;;6.70;99.90;;;;;;4979359;28;20050;-87
2022/03/29 02:10:17;;;;;;;31.50;18.60;;;6.70;99.90;;;;;;4956529;28;20043;-86
2022/03/29 02:12:43;;;;;;;32.70;19.23;;;6.70;99.90;;;;;;4989149;28;20126;-87
2022/03/29 02:15:09;;;;;;;30.80;18.77;;;6.70;99.90;;;;;;4970067;28;20122;-88
2022/03/29 02:17:35;;;;;;;39.22;19.42;;;6.70;99.90;;;;;;4969813;28;20572;-87
2022/03/29 02:20:02;;;;;;;35.90;19.73;;;6.70;99.90;;;;;;4978559;28;20070;-86
2022/03/29 02:22:27;;;;;;;35.03;19.92;;;6.70;99.90;;;;;;4983026;28;20050;-87
2022/03/29 02:24:53;;;;;;;32.42;19.25;;;6.80;99.90;;;;;;4975566;28;20184;-87
2022/03/29 02:27:19;;;;;;;33.42;19.67;;;6.70;99.90;;;;;;4986118;28;20109;-87
2022/03/29 02:29:44;;;;;;;34.20;19.23;;;6.70;99.90;;;;;;4976035;28;20038;-87
2022/03/29 02:32:10;;;;;;;36.40;19.65;;;6.70;99.90;;;;;;4978700;28;20081;-87
2022/03/29 02:34:35;;;;;;;35.53;19.75;;;6.70;99.90;;;;;;4990135;28;20101;-87
2022/03/29 02:37:01;;;;;;;31.98;20.02;;;6.70;99.90;;;;;;4987837;28;20058;-88
2022/03/29 02:39:27;;;;;;;33.95;19.30;;;7.20;99.90;;;;;;4985316;28;20089;-87
2022/03/29 02:41:52;;;;;;;33.45;20.13;;;6.70;99.90;;;;;;4972560;28;20050;-87
2022/03/29 02:44:18;;;;;;;32.42;20.27;;;6.70;99.90;;;;;;4979454;28;20114;-86
2022/03/29 02:46:44;;;;;;;33.22;19.33;;;6.60;99.90;;;;;;4986298;28;20034;-87
2022/03/29 02:49:10;;;;;;;32.47;19.73;;;6.60;99.90;;;;;;4973882;28;20045;-87
2022/03/29 02:51:36;;;;;;;31.08;18.02;;;7.30;99.90;;;;;;4968099;28;20049;-86
2022/03/29 02:54:01;;;;;;;35.45;18.48;;;6.60;99.90;;;;;;4991109;28;20042;-87
2022/03/29 02:56:28;;;;;;;30.02;18.58;;;6.60;99.90;;;;;;4988858;28;20043;-87
2022/03/29 02:58:53;;;;;;;32.10;19.52;;;6.60;99.90;;;;;;4972243;28;20050;-87
2022/03/29 03:01:19;;;;;;;33.22;19.73;;;6.60;99.90;;;;;;4991397;28;20046;-87
2022/03/29 03:03:45;;;;;;;33.67;19.15;;;6.60;99.90;;;;;;4973904;28;20075;-87
2022/03/29 03:06:11;;;;;;;33.78;19.02;;;6.60;99.90;;;;;;4976089;28;20057;-86
2022/03/29 03:08:36;;;;;;;32.42;20.13;;;6.60;99.90;;;;;;4987174;28;20082;-87
2022/03/29 03:11:03;;;;;;;33.15;19.58;;;6.60;99.90;;;;;;4972221;28;20081;-87
2022/03/29 03:13:29;;;;;;;33.55;19.13;;;6.60;99.90;;;;;;4976996;28;20110;-87
2022/03/29 03:15:55;;;;;;;33.05;18.90;;;6.60;99.90;;;;;;4985629;28;20125;-88
2022/03/29 03:18:20;;;;;;;34.78;19.15;;;6.50;99.90;;;;;;4975356;28;20186;-87
2022/03/29 03:20:46;;;;;;;31.63;19.33;;;6.50;99.90;;;;;;4993300;28;20045;-87
2022/03/29 03:23:12;;;;;;;31.40;18.77;;;6.50;99.90;;;;;;4979755;28;20045;-87
2022/03/29 03:25:38;;;;;;;35.63;19.27;;;6.50;99.90;;;;;;4985577;28;20600;-86
2022/03/29 03:28:04;;;;;;;33.28;19.02;;;7.20;99.90;;;;;;4980642;28;20064;-88
2022/03/29 03:30:30;;;;;;;32.00;19.85;;;6.50;99.90;;;;;;4991013;28;20503;-88
2022/03/29 03:32:55;;;;;;;33.38;20.10;;;6.60;99.90;;;;;;4989583;28;20062;-86
2022/03/29 03:35:21;;;;;;;35.13;19.35;;;6.50;99.90;;;;;;4973593;28;20046;-87
2022/03/29 03:37:48;;;;;;;34.10;19.38;;;6.50;99.90;;;;;;4975740;28;20035;-87
2022/03/29 03:40:13;;;;;;;40.92;19.50;;;6.90;99.90;;;;;;4978563;28;20034;-87
2022/03/29 03:42:40;;;;;;;34.92;20.02;;;6.50;99.90;;;;;;4977865;28;20552;-87
2022/03/29 03:45:07;;;;;;;35.90;19.75;;;6.50;99.90;;;;;;4966040;28;20564;-87
2022/03/29 03:47:32;;;;;;;33.83;19.85;;;6.50;99.90;;;;;;4983901;28;20050;-87
2022/03/29 03:49:58;;;;;;;32.40;19.13;;;6.50;99.90;;;;;;4974271;28;20034;-87
2022/03/29 03:52:24;;;;;;;31.17;19.35;;;6.50;99.90;;;;;;4982725;28;20046;-87
2022/03/29 03:54:49;;;;;;;34.22;18.58;;;6.50;99.90;;;;;;4974390;28;20122;-87
2022/03/29 03:57:15;;;;;;;35.70;19.30;;;6.50;99.90;;;;;;4990848;28;20410;-87
2022/03/29 03:59:41;;;;;;;38.20;20.52;;;6.50;99.90;;;;;;4978044;28;20077;-87
2022/03/29 04:02:06;;;;;;;32.88;19.25;;;6.50;99.90;;;;;;4978091;28;20046;-87
2022/03/29 04:04:32;;;;;;;32.05;19.15;;;6.50;99.90;;;;;;4993758;28;20066;-87
2022/03/29 04:06:57;;;;;;;31.98;20.00;;;6.50;99.90;;;;;;4994976;28;20129;-87
2022/03/29 04:09:24;;;;;;;31.98;19.25;;;6.40;99.90;;;;;;4995780;28;20066;-87
2022/03/29 04:11:50;;;;;;;31.23;18.25;;;6.40;99.90;;;;;;4991918;28;20501;-87
2022/03/29 04:14:16;;;;;;;34.33;19.88;;;6.40;99.90;;;;;;4979226;28;20069;-87
2022/03/29 04:16:41;;;;;;;31.40;18.65;;;6.40;99.90;;;;;;4977368;28;20062;-87
2022/03/29 04:19:07;;;;;;;33.47;19.15;;;6.40;99.90;;;;;;4961376;28;20034;-86
2022/03/29 04:21:33;;;;;;;33.35;19.52;;;6.40;99.90;;;;;;4993712;28;20117;-86
2022/03/29 04:23:58;;;;;;;34.38;19.90;;;6.50;99.90;;;;;;4995745;28;20039;-87
2022/03/29 04:26:24;;;;;;;33.38;19.70;;;7.20;99.90;;;;;;4974663;28;20050;-87
2022/03/29 04:28:50;;;;;;;34.47;18.95;;;6.50;99.90;;;;;;4979670;28;20489;-86
2022/03/29 04:31:15;;;;;;;35.92;20.58;;;6.50;99.90;;;;;;4975284;28;20493;-86
2022/03/29 04:33:44;;;;;;;31.10;19.73;;;6.50;99.90;;;;;;4975653;28;20043;-86
2022/03/29 04:36:09;;;;;;;30.98;18.92;;;6.50;99.90;;;;;;4980826;28;20504;-86
2022/03/29 04:38:35;;;;;;;37.35;19.70;;;6.50;99.90;;;;;;4993957;28;20065;-87
2022/03/29 04:41:00;;;;;;;30.98;18.38;;;6.40;99.90;;;;;;4993641;28;20043;-87
2022/03/29 04:43:26;;;;;;;35.63;20.42;;;6.40;99.90;;;;;;4995136;28;20042;-86
2022/03/29 04:45:52;;;;;;;35.20;19.58;;;6.40;99.90;;;;;;4992535;28;20038;-86
2022/03/29 04:48:17;;;;;;;35.13;19.42;;;6.40;99.90;;;;;;4993946;28;20081;-87
2022/03/29 04:50:43;;;;;;;33.10;19.80;;;6.40;99.90;;;;;;4977801;28;20501;-86
2022/03/29 04:53:08;;;;;;;31.27;19.13;;;6.40;99.90;;;;;;4977865;28;20489;-86
2022/03/29 04:55:34;;;;;;;32.20;18.80;;;6.40;99.90;;;;;;4977944;28;20118;-86
2022/03/29 04:58:00;;;;;;;34.20;19.27;;;6.40;99.90;;;;;;4989739;28;20030;-86
2022/03/29 05:00:26;;;;;;;33.15;19.75;;;6.40;99.90;;;;;;4974591;28;20042;-87
2022/03/29 05:02:52;;;;;;;35.45;19.27;;;6.40;99.90;;;;;;4987606;28;20112;-86
2022/03/29 05:05:18;;;;;;;33.88;19.40;;;6.40;99.90;;;;;;4994477;28;20043;-87
2022/03/29 05:07:44;;;;;;;36.35;20.50;;;6.40;99.90;;;;;;4979211;28;20042;-87
2022/03/29 05:10:11;;;;;;;31.25;20.27;;;6.40;99.90;;;;;;4974489;28;20069;-87
2022/03/29 05:12:48;;;;;;;38.35;20.50;;;6.40;99.90;;;;;;4974250;28;20054;-87
2022/03/29 05:15:16;;;;;;;34.95;19.85;;;6.40;99.90;;;;;;4979896;28;20038;-87
2022/03/29 05:17:42;;;;;;;38.67;21.33;;;6.40;99.90;;;;;;4978310;28;20050;-86
2022/03/29 05:20:10;;;;;;;40.00;20.60;;;6.20;99.90;;;;;;4958264;28;20047;-86
2022/03/29 05:22:53;;;;;;;39.90;20.55;;;6.80;99.90;;;;;;4985003;28;20053;-87
2022/03/29 05:25:21;;;;;;;33.63;19.88;;;6.50;99.90;;;;;;4991148;28;20433;-86
2022/03/29 05:27:47;;;;;;;33.15;20.63;;;6.50;99.90;;;;;;4987308;28;20493;-87
2022/03/29 05:30:14;;;;;;;32.55;19.90;;;6.60;99.90;;;;;;4989124;28;20043;-86
2022/03/29 05:32:40;;;;;;;34.15;20.52;;;6.60;99.90;;;;;;4976674;28;20053;-87
2022/03/29 05:35:08;;;;;;;34.17;20.40;;;6.60;99.90;;;;;;4958526;28;20548;-87
2022/03/29 05:37:34;;;;;;;39.40;20.15;;;6.60;99.90;;;;;;4980709;28;20122;-88
2022/03/29 05:40:00;;;;;;;35.67;20.63;;;6.60;99.90;;;;;;4984421;28;20041;-88
2022/03/29 05:42:26;;;;;;;28.08;19.17;;;6.90;99.90;;;;;;4980061;28;20038;-86
2022/03/29 05:44:51;;;;;;;35.08;20.80;;;6.60;99.90;;;;;;4974248;28;20055;-87
2022/03/29 05:50:01;;;;;;;39.42;20.63;;;6.60;99.90;;;;;;4978992;28;20043;-86
2022/03/29 05:52:28;;;;;;;37.88;20.98;;;6.60;99.90;;;;;;4985593;28;20398;-86
2022/03/29 05:54:54;;;;;;;35.60;20.95;;;6.50;99.90;;;;;;4979318;28;20073;-86
2022/03/29 05:57:19;;;;;;;36.85;21.42;;;6.50;99.90;;;;;;4984300;28;20062;-86
2022/03/29 05:59:45;;;;;;;39.78;21.13;;;6.50;99.90;;;;;;4989330;28;20098;-86
2022/03/29 06:02:11;;;;;;;36.63;20.23;;;6.50;99.90;;;;;;4981108;28;20059;-86
2022/03/29 06:04:37;;;;;;;37.03;21.67;;;6.50;99.90;;;;;;4990250;28;20515;-87
2022/03/29 06:07:04;;;;;;;34.47;20.45;;;6.50;99.90;;;;;;4983750;28;20038;-86
2022/03/29 06:09:31;;;;;;;38.75;21.20;;;6.50;99.90;;;;;;4973438;28;20412;-86
2022/03/29 06:11:56;;;;;;;41.40;22.05;;;6.50;99.90;;;;;;4976408;28;20046;-86
2022/03/29 06:14:22;;;;;;;36.03;21.63;;;6.60;99.90;;;;;;4968244;28;20066;-86
2022/03/29 06:16:48;;;;;;;39.47;21.98;;;6.60;99.90;;;;;;4965682;28;20042;-86
2022/03/29 06:19:14;;;;;;;44.53;22.98;;;6.50;99.90;;;;;;4959674;28;20419;-86
2022/03/29 06:21:40;;;;;;;38.03;22.50;;;6.50;99.90;;;;;;4974747;28;20045;-85
2022/03/29 06:24:07;;;;;;;34.33;21.48;;;6.60;99.90;;;;;;4979856;28;20052;-86
2022/03/29 06:26:37;;;;;;;39.08;21.75;;;6.50;99.90;;;;;;4980049;28;20057;-87
2022/03/29 06:29:03;;;;;;;42.22;22.23;;;6.50;99.90;;;;;;4985747;28;20046;-87
2022/03/29 06:31:29;;;;;;;42.30;22.23;;;6.60;99.90;;;;;;4973577;28;20043;-86
2022/03/29 06:33:54;;;;;;;41.97;23.13;;;6.60;99.90;;;;;;4981320;28;20679;-86
2022/03/29 06:36:20;;;;;;;40.40;22.02;;;6.60;99.90;;;;;;4978685;28;20082;-87
2022/03/29 06:38:46;;;;;;;39.85;22.63;;;6.60;99.90;;;;;;4981046;28;20038;-86
2022/03/29 06:41:13;;;;;;;38.60;22.50;;;6.60;99.90;;;;;;4984606;28;20038;-86
2022/03/29 06:43:39;;;;;;;40.55;22.77;;;6.60;99.90;;;;;;4980480;28;20042;-87
2022/03/29 06:46:07;;;;;;;38.25;22.30;;;6.50;99.90;;;;;;4992250;28;20042;-86
2022/03/29 06:48:33;;;;;;;41.30;22.75;;;6.50;99.90;;;;;;4990942;28;20054;-86
2022/03/29 06:50:59;;;;;;;41.08;22.52;;;6.60;99.90;;;;;;4992412;28;20034;-86
2022/03/29 06:53:24;;;;;;;39.05;21.98;;;6.60;99.90;;;;;;4991881;28;20042;-86
2022/03/29 06:55:51;;;;;;;40.95;22.33;;;6.60;99.90;;;;;;4991884;28;20038;-86
2022/03/29 06:58:18;;;;;;;42.85;22.92;;;6.70;99.90;;;;;;4982584;28;20037;-86
2022/03/29 07:00:43;;;;;;;36.00;22.13;;;6.70;99.90;;;;;;4993108;28;20034;-86
2022/03/29 07:03:10;;;;;;;38.55;22.38;;;6.70;99.90;;;;;;4977457;28;20046;-86
2022/03/29 07:05:38;;;;;;;41.75;22.27;;;6.70;99.90;;;;;;4973553;28;20053;-86
2022/03/29 07:08:05;;;;;;;38.97;22.45;;;6.70;99.90;;;;;;4976707;28;20528;-87
2022/03/29 07:13:15;;;;;;;41.55;22.83;;;6.70;99.90;;;;;;4978813;28;20039;-86
2022/03/29 07:15:41;;;;;;;42.88;24.23;;;6.70;99.90;;;;;;4975376;28;20387;-87
2022/03/29 07:18:06;;;;;;;40.13;22.10;;;6.80;99.90;;;;;;4976732;28;20482;-86
2022/03/29 07:20:32;;;;;;;39.15;23.55;;;6.70;99.90;;;;;;4970487;28;20544;-87
2022/03/29 07:22:58;;;;;;;40.63;23.08;;;6.70;99.90;;;;;;4983827;28;20550;-88
2022/03/29 07:25:25;;;;;;;40.08;22.40;;;6.80;99.90;;;;;;4973469;28;20130;-86
2022/03/29 07:27:52;;;;;;;41.33;23.02;;;6.80;99.90;;;;;;4988763;28;20113;-87
2022/03/29 07:30:18;;;;;;;38.17;23.10;;;6.80;99.90;;;;;;4979564;28;20038;-86
2022/03/29 07:32:46;;;;;;;41.35;22.48;;;6.90;99.90;;;;;;4971086;28;20398;-87
2022/03/29 07:35:14;;;;;;;44.22;23.20;;;6.90;99.90;;;;;;4988577;28;20126;-86
2022/03/29 07:37:40;;;;;;;38.47;21.75;;;6.90;99.90;;;;;;4984036;28;20034;-86
2022/03/29 07:40:08;;;;;;;42.95;22.73;;;6.90;99.90;;;;;;4990712;28;20038;-86
2022/03/29 07:42:35;;;;;;;47.33;23.40;;;7.00;99.90;;;;;;4991800;28;20042;-87
2022/03/29 07:45:03;;;;;;;42.25;22.08;;;7.10;99.90;;;;;;4991175;28;20593;-87
2022/03/29 07:47:29;;;;;;;42.70;23.70;;;7.30;99.90;;;;;;4991149;28;20558;-87
2022/03/29 07:49:55;;;;;;;42.40;22.92;;;7.40;99.90;;;;;;4989046;28;20531;-86
2022/03/29 07:52:21;;;;;;;39.25;22.60;;;7.90;99.90;;;;;;4982273;28;20497;-86
2022/03/29 07:54:47;;;;;;;36.55;22.90;;;7.70;99.90;;;;;;4972098;28;20041;-86
2022/03/29 07:57:13;;;;;;;43.35;22.65;;;7.40;99.90;;;;;;4978297;28;20042;-86
2022/03/29 07:59:38;;;;;;;39.60;22.17;;;7.40;99.90;;;;;;4982690;28;20751;-86
2022/03/29 08:02:07;;;;;;;38.75;21.88;;;7.50;99.90;;;;;;4988548;28;20504;-86
2022/03/29 08:04:33;;;;;;;44.58;22.50;;;7.60;99.90;;;;;;4972273;28;20039;-86
2022/03/29 08:07:00;;;;;;;42.42;21.48;;;7.60;99.90;;;;;;4957865;28;20035;-86
2022/03/29 08:09:28;;;;;;;37.33;20.55;;;7.70;99.90;;;;;;4983053;28;20049;-86
2022/03/29 08:11:57;;;;;;;37.88;22.30;;;7.80;99.90;;;;;;4979153;28;20050;-86
2022/03/29 08:14:25;;;;;;;39.63;21.75;;;7.90;99.90;;;;;;4989735;28;20045;-86
2022/03/29 08:16:55;;;;;;;37.17;21.00;;;7.90;99.90;;;;;;4979794;28;20052;-87
2022/03/29 08:19:21;;;;;;;40.40;22.50;;;7.90;99.90;;;;;;4989350;28;20057;-87
2022/03/29 08:21:52;;;;;;;38.97;20.80;;;7.90;99.90;;;;;;4978509;28;20042;-86
2022/03/29 08:24:23;;;;;;;44.80;22.17;;;7.90;99.90;;;;;;4974870;28;20547;-86
2022/03/29 08:26:51;;;;;;;37.95;20.42;;;8.10;99.90;;;;;;4976468;28;20041;-86
2022/03/29 08:29:19;;;;;;;34.83;20.35;;;8.10;99.90;;;;;;4979126;28;20042;-86
2022/03/29 08:31:47;;;;;;;38.15;20.30;;;8.00;99.90;;;;;;4966195;28;20043;-86
2022/03/29 08:34:13;;;;;;;40.95;20.42;;;8.00;99.90;;;;;;4977157;28;20675;-87
2022/03/29 08:36:39;;;;;;;36.00;20.90;;;8.00;99.90;;;;;;4970409;28;20058;-86
2022/03/29 08:39:06;;;;;;;37.80;21.50;;;8.00;99.90;;;;;;4958949;28;20039;-86
2022/03/29 08:41:37;;;;;;;42.30;20.70;;;8.00;99.90;;;;;;4959712;28;20043;-85
2022/03/29 08:44:03;;;;;;;38.72;20.90;;;8.00;99.90;;;;;;4963163;28;20051;-86
2022/03/29 08:46:38;;;;;;;38.22;21.27;;;8.00;99.90;;;;;;4949956;28;20046;-86
2022/03/29 08:49:08;;;;;;;37.35;21.15;;;8.00;99.90;;;;;;4971290;28;20084;-86
2022/03/29 08:51:38;;;;;;;37.35;21.90;;;8.10;99.90;;;;;;4956283;28;20437;-86
2022/03/29 08:54:05;;;;;;;38.70;19.92;;;8.30;99.90;;;;;;4956138;28;20047;-86
2022/03/29 08:56:33;;;;;;;37.05;20.17;;;8.40;99.90;;;;;;4973153;28;20038;-86
2022/03/29 08:58:59;;;;;;;41.38;19.67;;;8.50;99.90;;;;;;4971622;28;20034;-86
2022/03/29 09:01:24;;;;;;;39.70;19.63;;;8.60;99.90;;;;;;4975657;28;20049;-86
2022/03/29 09:04:25;;;;;;;40.22;20.35;;;8.90;99.90;;;;;;4993566;28;20046;-86
2022/03/29 09:06:51;;;;;;;41.05;18.30;;;9.10;99.90;;;;;;4979346;28;20047;-86
2022/03/29 09:09:32;;;;;;;33.15;19.15;;;9.10;99.90;;;;;;4989104;28;20047;-86
2022/03/29 09:12:00;;;;;;;34.95;18.80;;;9.30;99.90;;;;;;4972144;28;20540;-86
2022/03/29 09:14:29;;;;;;;33.05;16.63;;;9.20;99.90;;;;;;4973499;28;20126;-86
2022/03/29 09:16:55;;;;;;;30.00;13.32;;;9.20;99.90;;;;;;4969835;28;20042;-86
2022/03/29 09:19:23;;;;;;;31.00;15.25;;;9.10;99.90;;;;;;4960496;28;20118;-86
2022/03/29 09:21:49;;;;;;;29.92;14.38;;;9.20;99.90;;;;;;4972734;28;20030;-85
2022/03/29 09:24:18;;;;;;;32.63;14.45;;;9.40;99.90;;;;;;4968743;28;20098;-85
2022/03/29 09:26:45;;;;;;;25.90;13.32;;;9.40;99.90;;;;;;4970683;28;20078;-87
2022/03/29 09:29:23;;;;;;;28.88;12.98;;;9.40;99.90;;;;;;4973114;28;20077;-85
2022/03/29 09:32:08;;;;;;;26.70;11.73;;;9.60;99.90;;;;;;4989390;28;20491;-86
2022/03/29 09:34:35;;;;;;;31.90;12.38;;;9.80;99.90;;;;;;4973219;28;20043;-86
2022/03/29 09:37:02;;;;;;;29.23;12.73;;;9.80;99.90;;;;;;4973541;28;20413;-86
2022/03/29 09:39:42;;;;;;;32.45;12.40;;;9.90;99.90;;;;;;4973048;28;20562;-86
2022/03/29 09:42:13;;;;;;;24.75;12.23;;;10.10;99.90;;;;;;4973598;28;20043;-87
2022/03/29 09:44:42;;;;;;;26.40;11.15;;;10.20;99.90;;;;;;4973499;28;20042;-87
2022/03/29 09:47:11;;;;;;;30.33;11.85;;;10.10;99.90;;;;;;4974575;28;20054;-87
2022/03/29 09:49:54;;;;;;;25.08;12.30;;;10.10;99.90;;;;;;4971038;28;20437;-86
2022/03/29 09:52:28;;;;;;;27.88;12.18;;;10.30;99.90;;;;;;4974920;28;20050;-86
2022/03/29 09:55:13;;;;;;;24.50;11.25;;;10.60;99.90;;;;;;4972128;28;20100;-86
2022/03/29 09:57:41;;;;;;;26.95;12.23;;;10.90;99.90;;;;;;4972820;28;20496;-87
2022/03/29 10:00:10;;;;;;;29.17;11.88;;;10.90;99.90;;;;;;4972179;28;20079;-87
2022/03/29 10:02:40;;;;;;;24.23;12.10;;;11.00;99.90;;;;;;4988415;28;20133;-87
2022/03/29 10:05:06;;;;;;;29.15;12.60;;;11.10;99.90;;;;;;4978522;28;20546;-87
2022/03/29 10:07:37;;;;;;;31.02;11.82;;;11.10;99.90;;;;;;4982090;28;20038;-85
2022/03/29 10:10:06;;;;;;;26.38;11.57;;;11.10;99.90;;;;;;4968689;28;20030;-86
2022/03/29 10:12:33;;;;;;;27.50;11.65;;;10.90;99.90;;;;;;4979471;28;20464;-86
2022/03/29 10:14:59;;;;;;;27.42;11.35;;;11.10;99.90;;;;;;4977097;28;20038;-87
2022/03/29 10:17:26;;;;;;;30.33;12.07;;;10.60;99.90;;;;;;4972563;28;20046;-87
2022/03/29 10:19:54;;;;;;;28.17;10.15;;;10.90;99.90;;;;;;4972763;28;20125;-86
2022/03/29 10:22:19;;;;;;;26.73;11.13;;;11.10;99.90;;;;;;4971297;28;20050;-86
2022/03/29 10:24:45;;;;;;;24.15;11.05;;;10.90;99.90;;;;;;4972590;28;20061;-87
2022/03/29 10:27:11;;;;;;;20.77;9.60;;;11.00;99.90;;;;;;4972913;28;20054;-86
2022/03/29 10:29:40;;;;;;;26.98;10.75;;;10.80;99.90;;;;;;4973017;28;20149;-86
2022/03/29 10:32:06;;;;;;;24.48;10.10;;;10.80;99.90;;;;;;4972827;28;20043;-86
2022/03/29 10:34:42;;;;;;;24.40;10.18;;;10.90;99.90;;;;;;4972831;28;20121;-86
2022/03/29 10:37:21;;;;;;;23.85;10.82;;;11.10;99.90;;;;;;4986709;28;20045;-86
2022/03/29 10:39:56;;;;;;;21.80;10.15;;;11.00;99.90;;;;;;4981694;28;20030;-87
2022/03/29 10:42:30;;;;;;;22.85;9.48;;;10.80;99.90;;;;;;4980837;28;20049;-87
2022/03/29 10:45:00;;;;;;;23.98;9.18;;;10.70;99.90;;;;;;4978347;28;20041;-87
2022/03/29 10:47:28;;;;;;;28.35;10.00;;;10.80;99.90;;;;;;4985440;28;20512;-86
2022/03/29 10:49:53;;;;;;;22.20;9.95;;;11.10;99.90;;;;;;4973705;28;20109;-86
2022/03/29 10:52:22;;;;;;;24.65;9.30;;;11.40;99.90;;;;;;4980524;28;20187;-86
2022/03/29 10:54:49;;;;;;;22.88;9.48;;;11.70;99.90;;;;;;4970431;28;20046;-86
2022/03/29 10:57:28;;;;;;;23.58;9.50;;;11.80;99.90;;;;;;4977871;28;20563;-87
2022/03/29 11:00:06;;;;;;;25.67;10.30;;;11.80;99.90;;;;;;4986233;28;20040;-86
2022/03/29 11:02:32;;;;;;;23.95;9.65;;;11.80;99.90;;;;;;4986200;28;20241;-86
2022/03/29 11:05:06;;;;;;;18.85;8.65;;;11.60;99.90;;;;;;4972292;28;20562;-87
2022/03/29 11:07:39;;;;;;;25.05;9.27;;;11.60;99.90;;;;;;4988896;28;20492;-87
2022/03/29 11:10:16;;;;;;;23.07;9.27;;;11.70;99.90;;;;;;4992810;28;20396;-86
2022/03/29 11:12:46;;;;;;;24.20;10.20;;;11.80;99.90;;;;;;4990782;28;20316;-87
2022/03/29 11:15:24;;;;;;;17.10;8.55;;;11.70;99.90;;;;;;4991250;28;20054;-87
2022/03/29 11:17:50;;;;;;;22.63;8.98;;;11.60;99.90;;;;;;4991398;28;20047;-87
2022/03/29 11:20:34;;;;;;;26.77;8.65;;;11.50;99.90;;;;;;4991361;28;20073;-87
2022/03/29 11:23:01;;;;;;;21.45;7.88;;;11.50;99.90;;;;;;4991246;28;20050;-87
2022/03/29 11:25:27;;;;;;;23.98;7.43;;;11.60;99.90;;;;;;4992246;28;20057;-87
2022/03/29 11:28:03;;;;;;;23.98;8.30;;;11.50;99.90;;;;;;4970465;28;20050;-87
2022/03/29 11:30:29;;;;;;;20.83;8.20;;;11.70;99.90;;;;;;4984459;28;20040;-87
2022/03/29 11:32:57;;;;;;;22.95;8.05;;;11.70;99.90;;;;;;4968615;28;20516;-85
2022/03/29 11:35:24;;;;;;;21.02;7.95;;;11.60;99.90;;;;;;4955097;28;20506;-85
2022/03/29 11:37:50;;;;;;;18.58;7.50;;;11.80;99.90;;;;;;4952294;29;20461;-85
2022/03/29 11:40:19;;;;;;;23.02;8.35;;;11.50;99.90;;;;;;4968461;28;20062;-86
2022/03/29 11:42:46;;;;;;;19.48;8.25;;;11.70;99.90;;;;;;4984339;28;20054;-86
2022/03/29 11:45:13;;;;;;;23.27;8.15;;;11.60;99.90;;;;;;4951948;28;20051;-86
2022/03/29 11:47:40;;;;;;;21.98;7.72;;;11.90;99.90;;;;;;4951062;29;20039;-85
2022/03/29 11:50:06;;;;;;;22.70;7.97;;;12.10;99.90;;;;;;4951932;28;20040;-87
2022/03/29 11:52:33;;;;;;;18.67;7.47;;;12.10;99.90;;;;;;4967993;28;20051;-86
2022/03/29 11:54:59;;;;;;;21.20;8.45;;;12.10;99.90;;;;;;4951927;29;20580;-87
2022/03/29 11:57:29;;;;;;;21.27;8.40;;;11.90;99.90;;;;;;4985261;28;20169;-87
2022/03/29 11:59:56;;;;;;;20.13;9.10;;;11.70;99.90;;;;;;4972647;28;20102;-86
2022/03/29 12:02:23;;;;;;;20.63;8.88;;;11.40;99.90;;;;;;4953822;28;20051;-86
2022/03/29 12:04:50;;;;;;;22.85;8.95;;;11.00;99.90;;;;;;4963391;28;20134;-86
2022/03/29 12:07:16;;;;;;;20.65;8.40;;;10.80;99.90;;;;;;4946529;28;20039;-86
2022/03/29 12:09:48;;;;;;;24.48;8.68;;;10.70;99.90;;;;;;4962157;28;20047;-86
2022/03/29 12:12:15;;;;;;;25.17;9.07;;;10.90;99.90;;;;;;4967287;28;20097;-86
2022/03/29 12:14:41;;;;;;;17.52;8.00;;;11.20;99.90;;;;;;4962338;28;20039;-86
2022/03/29 12:17:08;;;;;;;17.80;8.00;;;11.10;99.90;;;;;;4971901;28;20042;-86
2022/03/29 12:19:39;;;;;;;22.73;8.27;;;11.30;99.90;;;;;;4971728;28;20050;-86
2022/03/29 12:22:09;;;;;;;23.33;8.57;;;11.60;99.90;;;;;;4971536;28;20043;-86
2022/03/29 12:24:37;;;;;;;22.55;7.97;;;11.50;99.90;;;;;;4974065;28;20039;-87
2022/03/29 12:27:06;;;;;;;19.38;8.18;;;11.40;99.90;;;;;;4975275;28;20043;-87
2022/03/29 12:29:43;;;;;;;19.17;7.78;;;11.50;99.90;;;;;;4975488;28;20394;-87
2022/03/29 12:32:09;;;;;;;20.92;8.27;;;11.40;99.90;;;;;;4975481;28;20046;-87
2022/03/29 12:34:36;;;;;;;15.55;7.38;;;11.40;99.90;;;;;;4975370;28;20089;-87
2022/03/29 12:37:04;;;;;;;20.08;7.57;;;11.00;99.90;;;;;;4959138;28;20047;-87
2022/03/29 12:39:35;;;;;;;23.02;7.68;;;10.80;99.90;;;;;;4975175;28;20038;-87
2022/03/29 12:42:01;;;;;;;19.63;7.80;;;10.90;99.90;;;;;;4974555;28;20114;-85
2022/03/29 12:44:43;;;;;;;22.98;9.15;;;11.00;99.90;;;;;;4975121;28;20038;-87